Time;durP1;ratioP1;P1;durP2;ratioP2;P2;SDS_P1;SDS_P2;PMS_P1;PMS_P2;Temp;Humidity;BMP_temperature;BMP_pressure;BME280_temperature;BME280_humidity;BME280_pressure;Samples;Min_cycle;Max_cycle;Signal;HPM_P1;HPM_P2
2024/02/07 00:00:26;;;;;;;4.90;2.30;;;;;;;8.32;59.32;97868.14;108450;1255;94204;-76
2024/02/07 00:03:12;;;;;;;5.60;2.30;;;;;;;8.31;59.28;97859.88;108272;1256;108593;-78
2024/02/07 00:05:39;;;;;;;4.00;2.00;;;;;;;8.32;59.37;97858.10;108531;1254;94398;-77
2024/02/07 00:08:05;;;;;;;4.10;2.20;;;;;;;8.32;59.40;97857.57;108486;1255;94551;-78
2024/02/07 00:10:32;;;;;;;5.80;2.40;;;;;;;8.32;59.48;97844.96;108537;1255;94699;-75
2024/02/07 00:12:59;;;;;;;7.70;2.40;;;;;;;8.32;59.50;97843.04;108579;1255;94515;-78
2024/02/07 00:15:25;;;;;;;4.90;2.30;;;;;;;8.34;59.37;97844.67;108488;1254;94286;-76
2024/02/07 00:17:52;;;;;;;4.70;2.20;;;;;;;8.35;59.50;97838.56;108463;1255;94645;-78
2024/02/07 00:20:19;;;;;;;4.10;2.30;;;;;;;8.37;59.43;97844.58;108414;1256;94302;-76
2024/02/07 00:22:45;;;;;;;5.20;2.40;;;;;;;8.38;59.34;97843.07;108519;1255;95069;-78
2024/02/07 00:25:12;;;;;;;5.60;2.50;;;;;;;8.39;59.51;97843.75;108584;1254;94403;-77
2024/02/07 00:27:38;;;;;;;4.10;2.00;;;;;;;8.40;59.50;97840.13;108484;1255;107283;-77
2024/02/07 00:30:05;;;;;;;5.60;2.50;;;;;;;8.41;59.49;97836.15;108495;1255;94529;-77
2024/02/07 00:32:32;;;;;;;5.30;2.00;;;;;;;8.40;59.56;97831.41;108514;1256;94826;-78
2024/02/07 00:34:58;;;;;;;4.40;2.10;;;;;;;8.40;59.51;97828.13;108513;1254;94438;-78
2024/02/07 00:37:25;;;;;;;4.20;2.20;;;;;;;8.39;59.47;97825.73;108527;1257;94590;-78
2024/02/07 00:39:52;;;;;;;4.70;2.40;;;;;;;8.39;59.56;97828.02;108493;1255;94354;-77
2024/02/07 00:42:19;;;;;;;2.90;2.10;;;;;;;8.40;59.60;97823.35;108546;1255;94271;-77
2024/02/07 00:44:45;;;;;;;4.50;2.10;;;;;;;8.40;59.62;97819.75;108331;1254;95845;-76
2024/02/07 00:47:12;;;;;;;4.10;2.00;;;;;;;8.41;59.45;97820.61;108529;1256;94515;-78
2024/02/07 00:49:39;;;;;;;4.00;2.10;;;;;;;8.41;59.65;97821.68;108531;1254;94598;-76
2024/02/07 00:52:06;;;;;;;3.60;2.00;;;;;;;8.42;59.68;97821.58;108479;1256;94317;-77
2024/02/07 00:54:32;;;;;;;4.40;2.40;;;;;;;8.43;59.63;97817.07;108572;1254;94324;-77
2024/02/07 00:56:59;;;;;;;3.90;2.30;;;;;;;8.45;59.65;97813.77;108474;1256;98063;-77
2024/02/07 00:59:25;;;;;;;4.10;2.10;;;;;;;8.45;59.58;97808.42;108466;1256;94237;-76
2024/02/07 01:01:53;;;;;;;;;;;;;;;8.45;59.52;97800.60;108489;1255;94426;-77
2024/02/07 01:04:19;;;;;;;4.20;2.10;;;;;;;8.43;59.58;97796.35;108491;1255;94364;-77
2024/02/07 01:06:45;;;;;;;4.20;1.90;;;;;;;8.44;59.73;97792.23;108481;1256;94686;-78
2024/02/07 01:09:12;;;;;;;3.60;2.30;;;;;;;8.44;59.72;97782.52;108553;1254;94459;-78
2024/02/07 01:11:39;;;;;;;5.10;2.20;;;;;;;8.44;59.70;97774.59;108457;1255;94812;-77
2024/02/07 01:14:05;;;;;;;5.40;2.20;;;;;;;8.45;59.64;97768.83;108513;1255;94473;-77
2024/02/07 01:16:33;;;;;;;4.00;2.10;;;;;;;8.46;59.63;97765.39;108482;1255;94512;-77
2024/02/07 01:18:59;;;;;;;3.20;1.60;;;;;;;8.48;59.67;97766.52;108521;1255;94715;-78
2024/02/07 01:21:26;;;;;;;5.50;2.00;;;;;;;8.48;59.67;97765.05;108466;1255;94318;-77
2024/02/07 01:23:53;;;;;;;3.10;1.90;;;;;;;8.49;59.67;97763.77;108549;1255;94526;-78
2024/02/07 01:26:19;;;;;;;4.60;2.00;;;;;;;8.50;59.64;97755.21;108498;1255;109577;-77
2024/02/07 01:28:46;;;;;;;3.90;1.70;;;;;;;8.50;59.71;97758.06;108487;1256;94335;-77
2024/02/07 01:31:12;;;;;;;4.90;2.30;;;;;;;8.51;59.64;97759.08;108478;1256;94662;-78
2024/02/07 01:33:39;;;;;;;4.30;1.90;;;;;;;8.50;59.79;97753.61;108465;1256;94330;-77
2024/02/07 01:36:06;;;;;;;3.30;1.80;;;;;;;8.51;59.64;97749.17;108580;1255;94644;-76
2024/02/07 01:38:32;;;;;;;3.30;2.10;;;;;;;8.51;59.66;97742.09;108490;1256;96068;-78
2024/02/07 01:40:59;;;;;;;3.80;2.00;;;;;;;8.52;59.69;97739.19;108509;1255;94744;-77
2024/02/07 01:43:28;;;;;;;2.90;1.60;;;;;;;8.53;59.63;97738.55;108505;1256;94688;-77
2024/02/07 01:45:56;;;;;;;3.90;2.00;;;;;;;8.54;59.71;97738.84;108539;1256;94212;-77
2024/02/07 01:48:22;;;;;;;5.10;2.10;;;;;;;8.54;59.63;97737.56;108447;1256;94561;-78
2024/02/07 01:50:51;;;;;;;5.50;2.50;;;;;;;8.56;59.81;97727.19;108473;1256;94430;-75
2024/02/07 01:53:18;;;;;;;6.80;2.30;;;;;;;8.57;59.65;97728.60;108503;1255;107317;-78
2024/02/07 01:55:49;;;;;;;4.70;2.20;;;;;;;8.58;59.72;97717.73;108292;1257;94686;-78
2024/02/07 01:58:18;;;;;;;3.60;2.00;;;;;;;8.59;59.71;97711.15;108483;1255;94595;-77
2024/02/07 02:00:48;;;;;;;3.30;2.10;;;;;;;8.61;59.73;97715.43;108496;1255;109906;-77
2024/02/07 02:03:14;;;;;;;3.70;1.80;;;;;;;8.60;59.82;97713.39;108533;1256;95535;-78
2024/02/07 02:05:41;;;;;;;2.60;1.70;;;;;;;8.61;59.84;97715.20;108449;1256;94397;-77
2024/02/07 02:08:08;;;;;;;4.10;1.90;;;;;;;8.61;59.67;97711.31;108427;1256;95482;-77
2024/02/07 02:10:35;;;;;;;5.00;1.90;;;;;;;8.63;59.70;97705.48;108484;1256;94408;-77
2024/02/07 02:13:02;;;;;;;3.90;2.00;;;;;;;8.66;59.64;97707.36;108569;1255;94854;-78
2024/02/07 02:15:30;;;;;;;7.00;1.90;;;;;;;8.68;59.77;97705.42;108508;1255;95203;-76
2024/02/07 02:17:56;;;;;;;4.70;1.80;;;;;;;8.71;59.79;97706.97;108548;1256;94911;-78
2024/02/07 02:20:23;;;;;;;3.60;1.70;;;;;;;8.71;59.73;97703.95;108549;1257;94179;-77
2024/02/07 02:22:57;;;;;;;5.50;2.00;;;;;;;8.70;59.76;97702.79;108366;1256;109052;-77
2024/02/07 02:26:00;;;;;;;4.50;1.90;;;;;;;8.71;59.85;97702.36;108442;1256;95057;-78
2024/02/07 02:28:31;;;;;;;5.40;1.90;;;;;;;8.71;59.80;97698.13;108505;1256;107576;-77
2024/02/07 02:31:01;;;;;;;5.30;2.10;;;;;;;8.70;59.78;97699.08;108450;1255;94665;-78
2024/02/07 02:33:30;;;;;;;3.40;1.90;;;;;;;8.70;59.76;97697.27;108513;1256;94734;-78
2024/02/07 02:36:00;;;;;;;3.80;1.80;;;;;;;8.72;59.68;97694.00;108388;1260;109491;-78
2024/02/07 02:38:27;;;;;;;4.10;2.10;;;;;;;8.71;59.78;97683.25;108512;1256;95288;-77
2024/02/07 02:40:56;;;;;;;3.60;2.00;;;;;;;8.72;59.84;97683.23;108269;1256;94571;-78
2024/02/07 02:43:23;;;;;;;4.30;1.80;;;;;;;8.73;59.78;97679.05;108446;1256;94303;-78
2024/02/07 02:45:51;;;;;;;4.70;2.00;;;;;;;8.73;59.75;97673.90;108483;1255;94634;-78
2024/02/07 02:48:18;;;;;;;3.30;1.80;;;;;;;8.73;59.72;97674.42;108530;1256;94970;-76
2024/02/07 02:50:45;;;;;;;3.60;1.90;;;;;;;8.72;59.70;97669.05;108460;1256;95435;-77
2024/02/07 02:53:12;;;;;;;3.70;1.80;;;;;;;8.73;59.72;97662.98;108471;1255;94483;-77
2024/02/07 02:55:39;;;;;;;3.40;1.70;;;;;;;8.72;59.77;97660.02;108443;1256;94609;-77
2024/02/07 02:58:06;;;;;;;2.70;1.50;;;;;;;8.72;59.70;97656.52;108480;1255;94728;-77
2024/02/07 03:00:32;;;;;;;4.00;2.00;;;;;;;8.72;59.83;97661.27;108457;1256;97619;-78
2024/02/07 03:02:59;;;;;;;2.90;1.80;;;;;;;8.74;59.85;97658.44;108385;1256;94804;-78
2024/02/07 03:10:41;;;;;;;4.30;1.90;;;;;;;8.72;59.75;97654.73;108484;1256;109964;-77
2024/02/07 03:13:08;;;;;;;4.30;1.80;;;;;;;8.72;59.75;97653.34;108320;1257;95502;-77
2024/02/07 03:15:34;;;;;;;3.60;1.80;;;;;;;8.72;59.77;97654.41;108415;1256;94454;-78
2024/02/07 03:18:01;;;;;;;5.30;1.80;;;;;;;8.71;59.82;97653.45;108442;1256;94610;-78
2024/02/07 03:20:28;;;;;;;4.20;1.70;;;;;;;8.71;59.76;97653.23;108475;1256;94693;-77
2024/02/07 03:22:55;;;;;;;3.80;1.70;;;;;;;8.71;59.68;97652.86;108458;1255;94280;-76
2024/02/07 03:25:21;;;;;;;2.80;1.70;;;;;;;8.70;59.86;97657.33;108551;1255;94696;-76
2024/02/07 03:27:51;;;;;;;3.40;1.70;;;;;;;8.71;59.75;97646.31;108469;1255;94717;-77
2024/02/07 03:30:21;;;;;;;3.70;1.80;;;;;;;8.71;59.78;97645.23;108515;1256;94312;-77
2024/02/07 03:32:49;;;;;;;3.20;1.80;;;;;;;8.71;59.70;97642.28;108293;1256;109524;-76
2024/02/07 03:35:15;;;;;;;4.20;1.50;;;;;;;8.71;59.81;97644.80;108522;1256;95597;-77
2024/02/07 03:37:43;;;;;;;2.50;1.40;;;;;;;8.71;59.72;97645.66;108412;1255;94638;-77
2024/02/07 03:40:13;;;;;;;4.00;2.00;;;;;;;8.72;59.63;97642.58;108531;1259;94223;-77
2024/02/07 03:42:43;;;;;;;2.60;1.70;;;;;;;8.71;59.87;97644.02;108510;1256;94287;-77
2024/02/07 03:45:17;;;;;;;3.90;1.60;;;;;;;8.70;59.78;97641.64;108292;1256;109956;-78
2024/02/07 03:47:44;;;;;;;8.50;2.00;;;;;;;8.69;59.86;97646.30;108481;1255;96789;-77
2024/02/07 03:50:12;;;;;;;5.40;1.80;;;;;;;8.70;59.70;97648.00;108534;1255;107697;-77
2024/02/07 03:52:39;;;;;;;3.00;1.80;;;;;;;8.69;59.81;97648.79;108490;1255;94838;-77
2024/02/07 03:55:06;;;;;;;4.40;1.80;;;;;;;8.70;59.77;97642.53;108491;1256;94246;-77
2024/02/07 03:57:33;;;;;;;4.30;2.00;;;;;;;8.69;59.77;97643.48;108492;1256;94364;-77
2024/02/07 03:59:59;;;;;;;3.80;2.20;;;;;;;8.68;59.71;97640.58;108553;1255;94359;-78
2024/02/07 04:02:26;;;;;;;4.00;2.10;;;;;;;8.67;59.76;97642.97;108359;1256;94296;-78
2024/02/07 04:04:53;;;;;;;2.90;1.90;;;;;;;8.66;59.67;97643.21;108530;1257;94304;-77
2024/02/07 04:07:23;;;;;;;4.20;2.10;;;;;;;8.67;59.84;97635.74;108472;1255;109904;-78
2024/02/07 04:09:50;;;;;;;3.40;2.10;;;;;;;8.68;59.78;97631.09;108457;1256;95249;-78
2024/02/07 05:17:26;;;;;;;2.90;1.40;;;;;;;8.72;59.84;97586.52;108461;1256;94987;-74
2024/02/07 05:19:52;;;;;;;2.50;1.60;;;;;;;8.72;59.81;97585.23;108268;1256;107855;-74
2024/02/07 05:22:19;;;;;;;2.40;1.40;;;;;;;8.71;59.88;97579.51;108435;1255;94405;-74
2024/02/07 05:24:46;;;;;;;3.00;1.60;;;;;;;8.72;59.88;97575.60;108517;1255;94354;-74
2024/02/07 05:27:13;;;;;;;4.90;1.50;;;;;;;8.72;59.85;97570.10;108452;1256;94301;-74
2024/02/07 05:29:40;;;;;;;3.00;1.70;;;;;;;8.72;59.78;97572.02;108511;1256;94333;-77
2024/02/07 05:32:07;;;;;;;5.40;2.00;;;;;;;8.71;59.87;97567.34;108514;1256;94530;-77
2024/02/07 05:34:35;;;;;;;2.60;1.60;;;;;;;8.71;59.74;97569.16;108519;1256;94680;-76
2024/02/07 05:37:02;;;;;;;4.00;1.80;;;;;;;8.70;59.70;97573.23;108314;1256;110092;-77
2024/02/07 05:39:37;;;;;;;5.40;1.70;;;;;;;8.71;59.79;97569.65;108338;1256;95908;-78
2024/02/07 05:42:04;;;;;;;5.20;2.20;;;;;;;8.71;59.78;97572.25;108507;1256;107630;-77
2024/02/07 05:44:30;;;;;;;5.30;1.70;;;;;;;8.71;59.65;97562.93;108424;1256;94885;-77
2024/02/07 05:46:56;;;;;;;4.80;1.80;;;;;;;8.71;59.76;97558.89;108479;1256;94334;-78
2024/02/07 05:49:23;;;;;;;2.90;1.60;;;;;;;8.71;59.72;97555.64;108453;1256;94415;-74
2024/02/07 05:51:59;;;;;;;7.30;3.00;;;;;;;8.73;59.73;97552.17;108495;1256;94871;-74
2024/02/07 05:54:29;;;;;;;4.30;2.00;;;;;;;8.74;59.80;97545.86;108474;1256;94632;-73
2024/02/07 05:56:56;;;;;;;3.10;2.10;;;;;;;8.74;59.63;97541.78;108537;1255;94713;-74
2024/02/07 05:59:22;;;;;;;3.90;1.90;;;;;;;8.75;59.77;97541.86;108481;1254;95077;-73
2024/02/07 06:01:49;;;;;;;4.40;1.80;;;;;;;8.76;59.67;97539.30;108449;1257;94345;-73
2024/02/07 06:04:17;;;;;;;3.80;1.80;;;;;;;8.77;59.79;97533.54;108481;1257;94349;-73
2024/02/07 06:06:47;;;;;;;4.10;2.10;;;;;;;8.78;59.66;97543.19;108563;1256;94568;-73
2024/02/07 06:09:13;;;;;;;3.60;1.70;;;;;;;8.78;59.74;97542.09;108462;1256;94368;-74
2024/02/07 06:11:43;;;;;;;4.20;2.10;;;;;;;8.78;59.62;97537.14;108449;1256;94909;-73
2024/02/07 06:14:10;;;;;;;3.40;1.70;;;;;;;8.78;59.74;97533.34;108317;1257;96836;-74
2024/02/07 06:16:37;;;;;;;4.60;2.10;;;;;;;8.79;59.68;97536.05;108490;1257;107660;-73
2024/02/07 06:19:06;;;;;;;4.50;1.90;;;;;;;8.80;59.74;97534.52;108478;1256;94337;-73
2024/02/07 06:21:32;;;;;;;4.30;2.00;;;;;;;8.81;59.74;97531.64;108354;1256;94322;-73
2024/02/07 06:23:59;;;;;;;5.10;2.00;;;;;;;8.80;59.56;97533.15;108274;1254;94479;-73
2024/02/07 06:26:26;;;;;;;3.70;1.80;;;;;;;8.80;59.64;97522.50;108473;1256;94352;-74
2024/02/07 06:28:53;;;;;;;3.50;1.80;;;;;;;8.81;59.64;97516.80;108488;1259;95760;-74
2024/02/07 06:31:19;;;;;;;4.60;2.50;;;;;;;8.81;59.69;97524.03;108548;1255;94340;-73
2024/02/07 06:33:46;;;;;;;3.90;2.10;;;;;;;8.81;59.65;97526.02;108482;1254;94257;-73
2024/02/07 06:36:13;;;;;;;3.10;1.70;;;;;;;8.80;59.66;97524.31;108312;1256;94741;-72
2024/02/07 06:38:41;;;;;;;4.00;1.90;;;;;;;8.79;59.73;97528.04;108463;1257;95016;-73
2024/02/07 06:41:07;;;;;;;4.80;2.40;;;;;;;8.80;59.69;97525.53;108478;1256;95008;-72
2024/02/07 06:43:34;;;;;;;4.30;2.00;;;;;;;8.78;59.67;97525.17;108467;1257;97359;-73
2024/02/07 06:46:02;;;;;;;5.10;2.00;;;;;;;8.79;59.60;97524.92;108396;1257;94655;-72
2024/02/07 06:48:29;;;;;;;3.70;1.90;;;;;;;8.80;59.60;97526.44;108441;1258;107163;-72
2024/02/07 06:50:57;;;;;;;2.70;1.70;;;;;;;8.80;59.68;97527.46;108444;1257;94921;-73
2024/02/07 06:53:23;;;;;;;5.10;2.00;;;;;;;8.81;59.67;97522.84;108458;1259;95189;-72
2024/02/07 06:55:50;;;;;;;4.80;2.00;;;;;;;8.80;59.53;97514.55;108492;1256;94357;-72
2024/02/07 06:58:18;;;;;;;3.50;1.90;;;;;;;8.81;59.64;97516.58;108471;1259;94328;-73
2024/02/07 07:00:45;;;;;;;6.20;2.10;;;;;;;8.84;59.65;97519.35;108417;1256;94715;-72
2024/02/07 07:03:11;;;;;;;3.10;1.80;;;;;;;8.86;59.59;97519.01;108463;1256;94837;-73
2024/02/07 07:05:38;;;;;;;3.10;1.60;;;;;;;8.86;59.69;97517.73;108537;1258;94970;-73
2024/02/07 07:08:05;;;;;;;4.60;2.30;;;;;;;8.88;59.57;97514.57;108536;1257;95530;-73
2024/02/07 07:10:34;;;;;;;4.60;2.00;;;;;;;8.90;59.57;97511.38;108450;1256;107244;-74
2024/02/07 07:13:00;;;;;;;3.90;2.10;;;;;;;8.90;59.68;97511.36;108453;1255;94219;-72
2024/02/07 07:24:37;;;;;;;3.30;1.70;;;;;;;8.92;59.41;97505.39;106117;1284;95429;-72
2024/02/07 07:27:05;;;;;;;2.20;1.30;;;;;;;8.92;59.52;97508.35;106645;1277;94726;-73
2024/02/07 07:29:33;;;;;;;2.10;1.50;;;;;;;8.93;59.47;97506.68;107405;1271;94519;-72
2024/02/07 07:32:00;;;;;;;2.70;1.60;;;;;;;8.94;59.42;97511.40;108066;1263;94659;-72
2024/02/07 07:34:27;;;;;;;3.30;1.80;;;;;;;8.95;59.46;97508.47;108103;1261;94616;-73
2024/02/07 07:36:53;;;;;;;3.10;1.70;;;;;;;8.96;59.48;97512.96;108088;1262;94702;-73
2024/02/07 07:39:20;;;;;;;6.00;2.20;;;;;;;8.98;59.26;97508.07;108082;1265;94933;-72
2024/02/07 07:41:48;;;;;;;5.10;2.20;;;;;;;8.98;59.33;97510.64;108124;1263;96074;-73
2024/02/07 07:44:15;;;;;;;3.30;1.70;;;;;;;9.00;59.31;97512.80;108104;1262;95009;-73
2024/02/07 07:46:41;;;;;;;3.00;1.80;;;;;;;9.01;59.28;97514.66;108141;1262;94664;-72
2024/02/07 07:49:08;;;;;;;3.60;2.00;;;;;;;9.02;59.28;97515.97;108108;1262;107343;-72
2024/02/07 07:51:35;;;;;;;7.20;2.30;;;;;;;9.02;59.25;97510.77;108493;1257;94295;-72
2024/02/07 07:56:48;;;;;;;4.80;2.00;;;;;;;9.06;59.21;97516.08;108474;1257;109947;-72
2024/02/07 07:59:15;;;;;;;3.30;1.80;;;;;;;9.08;59.31;97519.30;108597;1257;94299;-72
2024/02/07 08:01:42;;;;;;;3.30;1.90;;;;;;;9.08;59.24;97509.20;108469;1256;94350;-75
2024/02/07 08:04:09;;;;;;;4.70;1.50;;;;;;;9.06;59.24;97508.31;108341;1257;94520;-72
2024/02/07 08:06:35;;;;;;;4.40;2.20;;;;;;;9.05;59.23;97506.31;108475;1257;94433;-72
2024/02/07 08:09:02;;;;;;;6.10;2.90;;;;;;;9.05;59.34;97506.14;108588;1257;95200;-73
2024/02/07 08:11:33;;;;;;;6.10;2.60;;;;;;;9.02;59.26;97497.34;108415;1259;107774;-74
2024/02/07 08:14:00;;;;;;;6.80;3.20;;;;;;;8.99;59.29;97501.08;108492;1256;94667;-74
2024/02/07 08:16:30;;;;;;;5.40;2.80;;;;;;;8.95;59.34;97496.07;108527;1255;94450;-74
2024/02/07 08:18:57;;;;;;;6.20;2.20;;;;;;;8.94;59.28;97499.58;108547;1255;94253;-74
2024/02/07 08:21:30;;;;;;;7.60;2.70;;;;;;;8.95;59.39;97495.58;108505;1255;95284;-74
2024/02/07 08:23:57;;;;;;;4.80;2.50;;;;;;;8.97;59.41;97498.88;108450;1257;107291;-75
2024/02/07 08:26:23;;;;;;;7.80;2.70;;;;;;;9.00;59.45;97491.23;108496;1257;94458;-74
2024/02/07 08:28:50;;;;;;;4.70;2.50;;;;;;;9.01;59.40;97490.59;108485;1257;95226;-73
2024/02/07 08:31:17;;;;;;;5.70;2.40;;;;;;;9.04;59.46;97484.67;108543;1256;94635;-74
2024/02/07 08:33:44;;;;;;;4.40;2.40;;;;;;;9.08;59.52;97480.54;108525;1256;94717;-74
2024/02/07 08:36:12;;;;;;;4.20;2.30;;;;;;;9.12;59.50;97479.56;108473;1255;94653;-72
2024/02/07 08:38:42;;;;;;;5.50;2.50;;;;;;;9.13;59.46;97473.39;108461;1256;94521;-71
2024/02/07 08:41:09;;;;;;;6.00;2.40;;;;;;;9.14;59.39;97478.64;108529;1256;94207;-72
2024/02/07 08:43:35;;;;;;;6.00;3.30;;;;;;;9.14;59.49;97478.84;108515;1256;94358;-73
2024/02/07 08:46:02;;;;;;;6.50;3.20;;;;;;;9.13;59.49;97475.01;108303;1258;94725;-72
2024/02/07 08:48:28;;;;;;;4.60;2.70;;;;;;;9.08;59.54;97473.34;108572;1255;94612;-72
2024/02/07 08:50:55;;;;;;;8.50;3.30;;;;;;;9.05;59.49;97474.84;108352;1256;94312;-72
2024/02/07 08:53:21;;;;;;;5.60;2.80;;;;;;;9.01;59.39;97481.35;108412;1257;94608;-73
2024/02/07 08:55:48;;;;;;;6.30;2.80;;;;;;;8.96;59.43;97478.88;108299;1256;94629;-72
2024/02/07 08:58:14;;;;;;;5.80;2.70;;;;;;;8.90;59.46;97472.98;108424;1256;94406;-72
2024/02/07 09:00:42;;;;;;;6.90;2.40;;;;;;;8.88;59.44;97476.89;108412;1257;95367;-72
2024/02/07 09:03:09;;;;;;;6.50;2.80;;;;;;;8.87;59.49;97474.19;108559;1255;109979;-73
2024/02/07 09:05:36;;;;;;;5.20;2.40;;;;;;;8.87;59.54;97477.56;108473;1257;94786;-72
2024/02/07 09:08:03;;;;;;;5.20;2.70;;;;;;;8.86;59.56;97481.72;108487;1257;94258;-72
2024/02/07 09:10:30;;;;;;;4.60;2.50;;;;;;;8.85;59.63;97485.73;108448;1256;94683;-72
2024/02/07 09:12:59;;;;;;;5.90;2.50;;;;;;;8.84;59.60;97480.33;108512;1256;94378;-72
2024/02/07 09:15:25;;;;;;;5.50;2.30;;;;;;;8.86;59.54;97475.52;108531;1256;94514;-72
2024/02/07 09:17:52;;;;;;;6.00;2.60;;;;;;;8.86;59.62;97478.15;108339;1257;94615;-72
2024/02/07 09:20:19;;;;;;;3.70;2.20;;;;;;;8.89;59.65;97476.31;108520;1257;94261;-71
2024/02/07 09:22:45;;;;;;;4.50;2.40;;;;;;;8.92;59.68;97479.70;108456;1258;94302;-69
2024/02/07 09:25:12;;;;;;;4.90;2.50;;;;;;;8.97;59.80;97482.45;108586;1256;94260;-70
2024/02/07 09:27:40;;;;;;;5.60;2.20;;;;;;;9.01;59.78;97477.36;108444;1259;94683;-72
2024/02/07 09:30:07;;;;;;;2.50;1.60;;;;;;;9.05;59.81;97473.09;108390;1255;107682;-72
2024/02/07 09:32:41;;;;;;;7.50;3.00;;;;;;;9.12;59.82;97468.17;108309;1255;94712;-72
2024/02/07 09:35:08;;;;;;;5.00;2.10;;;;;;;9.22;59.92;97467.48;108475;1256;94213;-72
2024/02/07 09:37:36;;;;;;;4.00;1.80;;;;;;;9.30;59.96;97463.05;108419;1255;94393;-72
2024/02/07 09:40:04;;;;;;;4.10;2.00;;;;;;;9.36;59.96;97461.05;108534;1256;94240;-72
2024/02/07 09:42:34;;;;;;;5.60;2.20;;;;;;;9.40;59.95;97462.77;108325;1256;94366;-72
2024/02/07 09:45:02;;;;;;;3.10;1.90;;;;;;;9.45;60.01;97463.77;108477;1255;94605;-72
2024/02/07 09:47:35;;;;;;;3.00;2.10;;;;;;;9.50;59.97;97464.13;108383;1257;94581;-72
2024/02/07 09:50:09;;;;;;;4.70;3.00;;;;;;;9.57;60.09;97465.70;108498;1256;109645;-72
2024/02/07 09:52:39;;;;;;;5.70;2.20;;;;;;;9.59;60.07;97460.84;108317;1257;95468;-72
2024/02/07 09:55:07;;;;;;;6.30;3.20;;;;;;;9.61;60.11;97460.84;108347;1256;107316;-72
2024/02/07 09:57:35;;;;;;;6.20;2.80;;;;;;;9.61;60.08;97457.45;108468;1256;94223;-74
2024/02/07 10:00:02;;;;;;;5.90;2.40;;;;;;;9.64;60.25;97462.66;108485;1256;94317;-73
2024/02/07 10:02:30;;;;;;;5.20;2.40;;;;;;;9.69;60.18;97453.37;108552;1256;94655;-72
2024/02/07 10:05:00;;;;;;;4.00;2.30;;;;;;;9.73;60.35;97457.79;108430;1257;94356;-72
2024/02/07 10:07:27;;;;;;;3.20;2.00;;;;;;;9.75;60.27;97451.73;108406;1256;105495;-72
2024/02/07 10:09:57;;;;;;;5.80;1.80;;;;;;;9.76;60.34;97445.85;108546;1255;94712;-70
2024/02/07 10:12:24;;;;;;;3.30;1.80;;;;;;;9.76;60.46;97440.86;108524;1255;94340;-72
2024/02/07 10:14:51;;;;;;;5.50;1.80;;;;;;;9.76;60.44;97436.91;108484;1255;94388;-74
2024/02/07 10:17:17;;;;;;;6.10;1.80;;;;;;;9.77;60.51;97434.20;108480;1256;94529;-72
2024/02/07 10:19:44;;;;;;;5.00;2.00;;;;;;;9.76;60.67;97432.50;108518;1255;94309;-73
2024/02/07 10:22:17;;;;;;;4.50;1.90;;;;;;;9.76;60.64;97427.78;108553;1254;94462;-73
2024/02/07 10:24:47;;;;;;;3.80;2.00;;;;;;;9.74;60.74;97425.98;108490;1256;109655;-70
2024/02/07 10:27:21;;;;;;;4.50;2.00;;;;;;;9.75;60.80;97422.86;108482;1255;95587;-74
2024/02/07 10:29:48;;;;;;;5.30;1.80;;;;;;;9.77;60.86;97420.06;108230;1256;108874;-72
2024/02/07 10:32:18;;;;;;;4.10;2.30;;;;;;;9.79;60.95;97420.23;108281;1256;94368;-73
2024/02/07 10:34:50;;;;;;;5.40;2.00;;;;;;;9.81;61.05;97410.80;108510;1255;95470;-73
2024/02/07 10:37:21;;;;;;;3.30;1.70;;;;;;;9.86;61.09;97407.70;108511;1256;110715;-73
2024/02/07 10:39:51;;;;;;;4.00;1.60;;;;;;;9.91;61.22;97406.81;108244;1256;94347;-74
2024/02/07 10:42:17;;;;;;;3.60;1.80;;;;;;;9.94;61.31;97408.48;108490;1255;107628;-72
2024/02/07 10:44:46;;;;;;;4.70;1.90;;;;;;;9.96;61.27;97408.47;108437;1256;94455;-70
2024/02/07 10:47:12;;;;;;;5.10;2.00;;;;;;;9.98;61.38;97401.36;108488;1256;94290;-70
2024/02/07 10:49:40;;;;;;;3.60;1.80;;;;;;;10.02;61.32;97407.89;108472;1256;110378;-70
2024/02/07 10:52:11;;;;;;;6.00;2.30;;;;;;;10.03;61.38;97409.10;108526;1256;94295;-72
2024/02/07 10:54:38;;;;;;;4.40;2.20;;;;;;;10.02;61.37;97405.77;108378;1256;107566;-70
2024/02/07 10:57:06;;;;;;;5.10;2.20;;;;;;;10.00;61.34;97403.49;108465;1256;94542;-72
2024/02/07 10:59:33;;;;;;;4.40;2.20;;;;;;;10.00;61.35;97404.41;108567;1255;94638;-73
2024/02/07 11:03:35;;;;;;;4.00;1.70;;;;;;;9.98;61.31;97399.56;102072;1296;636105;-72
2024/02/07 11:06:04;;;;;;;5.40;2.00;;;;;;;9.94;61.33;97397.14;104873;1280;94444;-73
2024/02/07 11:08:33;;;;;;;4.30;2.00;;;;;;;9.92;61.37;97394.64;106378;1269;95251;-72
2024/02/07 11:11:02;;;;;;;3.20;1.90;;;;;;;9.91;61.37;97396.25;106048;1268;106909;-71
2024/02/07 11:13:31;;;;;;;4.10;1.90;;;;;;;9.89;61.31;97393.77;104741;1268;95975;-70
2024/02/07 11:15:59;;;;;;;3.60;1.80;;;;;;;9.86;61.38;97398.46;105486;1263;107800;-71
2024/02/07 11:18:32;;;;;;;3.40;1.80;;;;;;;9.82;61.44;97400.29;104962;1270;94287;-71
2024/02/07 11:21:02;;;;;;;3.40;2.00;;;;;;;9.77;61.42;97398.29;106404;1262;94267;-71
2024/02/07 11:23:36;;;;;;;4.40;1.80;;;;;;;9.72;61.46;97402.48;106260;1254;107058;-72
2024/02/07 11:26:06;;;;;;;4.40;2.00;;;;;;;9.67;61.39;97401.64;107770;1254;96272;-71
2024/02/07 11:28:35;;;;;;;4.30;2.30;;;;;;;9.63;61.53;97403.48;106489;1254;107652;-71
2024/02/07 11:31:06;;;;;;;5.50;3.00;;;;;;;9.59;61.51;97403.71;105753;1254;95239;-71
2024/02/07 11:33:37;;;;;;;5.20;2.60;;;;;;;9.54;61.56;97398.67;106061;1258;95467;-70
2024/02/07 11:36:18;;;;;;;4.60;2.50;;;;;;;9.50;61.57;97400.80;108700;1254;106852;-71
2024/02/07 11:38:48;;;;;;;5.90;2.60;;;;;;;9.48;61.80;97395.73;105544;1260;95270;-71
2024/02/07 11:41:18;;;;;;;5.10;2.50;;;;;;;9.45;62.01;97397.74;108099;1253;107301;-71
2024/02/07 11:43:50;;;;;;;5.20;2.60;;;;;;;9.42;62.03;97402.79;105690;1257;95295;-71
2024/02/07 11:46:19;;;;;;;4.20;2.00;;;;;;;9.41;62.06;97399.75;106130;1254;95250;-72
2024/02/07 11:48:52;;;;;;;4.90;2.50;;;;;;;9.38;61.97;97400.84;105801;1254;108654;-72
2024/02/07 11:51:24;;;;;;;4.70;2.40;;;;;;;9.37;62.18;97401.96;105935;1257;95487;-71
2024/02/07 11:53:58;;;;;;;6.40;3.10;;;;;;;9.36;62.25;97395.42;105391;1257;109225;-71
2024/02/07 11:56:29;;;;;;;4.90;2.50;;;;;;;9.34;62.26;97395.37;106519;1257;95229;-71
2024/02/07 11:59:00;;;;;;;5.10;2.60;;;;;;;9.34;62.30;97393.67;106443;1254;95259;-71
2024/02/07 12:01:31;;;;;;;7.40;2.80;;;;;;;9.32;62.38;97392.91;106411;1257;108485;-69
2024/02/07 12:04:00;;;;;;;5.20;2.30;;;;;;;9.32;62.49;97390.29;105353;1257;95306;-72
2024/02/07 12:06:29;;;;;;;5.40;2.70;;;;;;;9.31;62.48;97385.10;105828;1257;107618;-71
2024/02/07 12:08:57;;;;;;;7.40;2.70;;;;;;;9.29;62.66;97388.61;105440;1257;95227;-71
2024/02/07 12:11:25;;;;;;;4.90;2.70;;;;;;;9.27;62.68;97384.95;106200;1257;95252;-72
2024/02/07 12:13:53;;;;;;;6.30;3.00;;;;;;;9.26;62.76;97386.64;106532;1254;108567;-73
2024/02/07 12:16:21;;;;;;;6.40;2.70;;;;;;;9.24;62.73;97381.13;105222;1267;95489;-71
2024/02/07 12:18:49;;;;;;;7.30;3.60;;;;;;;9.22;62.82;97380.58;107064;1253;107705;-72
2024/02/07 12:21:18;;;;;;;13.00;6.00;;;;;;;9.23;62.92;97380.55;106034;1257;95259;-72
2024/02/07 12:23:50;;;;;;;13.30;5.80;;;;;;;9.23;63.10;97378.90;105483;1259;95309;-72
2024/02/07 12:26:23;;;;;;;7.50;4.40;;;;;;;9.24;63.09;97375.42;106261;1257;107634;-72
2024/02/07 12:28:55;;;;;;;5.10;2.90;;;;;;;9.26;63.12;97372.29;105665;1257;96100;-73
2024/02/07 12:31:24;;;;;;;4.20;2.50;;;;;;;9.26;63.20;97369.48;107162;1257;107305;-72
2024/02/07 12:33:53;;;;;;;7.70;2.70;;;;;;;9.25;63.22;97369.89;106149;1254;95349;-72
2024/02/07 12:36:21;;;;;;;5.40;2.60;;;;;;;9.26;63.37;97370.54;105611;1257;95218;-72
2024/02/07 12:38:49;;;;;;;5.90;2.50;;;;;;;9.24;63.56;97365.91;106118;1257;108317;-72
2024/02/07 12:41:17;;;;;;;5.20;2.60;;;;;;;9.23;63.54;97367.60;105504;1264;95230;-71
2024/02/07 12:43:45;;;;;;;3.90;2.20;;;;;;;9.21;63.63;97365.83;105932;1256;108185;-71
2024/02/07 12:46:13;;;;;;;6.50;2.40;;;;;;;9.20;63.72;97371.55;105355;1261;95262;-72
2024/02/07 12:48:41;;;;;;;3.60;2.20;;;;;;;9.17;63.88;97373.49;107285;1254;95265;-71
2024/02/07 12:51:11;;;;;;;4.30;2.40;;;;;;;9.15;63.80;97379.01;107877;1254;108595;-72
2024/02/07 12:53:39;;;;;;;3.20;1.80;;;;;;;9.12;63.91;97376.75;105934;1255;95485;-71
2024/02/07 12:56:13;;;;;;;4.00;1.80;;;;;;;9.12;63.94;97380.67;105319;1267;108331;-70
2024/02/07 12:58:42;;;;;;;6.50;2.50;;;;;;;9.11;63.96;97375.48;105459;1257;95281;-70